Aérodrome :
LOGIN :

S'inscrire | Disclaimer

   EN    FR    IT 

 










Légende :    VFR   VFR Marginal   IFR   IFR Intensif   IFR Très Intensif
Visi : 
Plafond : 
>= 8 km
>= 3000ft
5 à 8 km
1000 à 3000 ft
1500m à 5 km
500 à 1000 ft
800 à 1500m
200 à 500 ft
< 800m
< 200 ft
Symboles :   Orages  Brouillard  Fortes neiges  Fortes précipitations  Vent > 20 kt
SIGMETs :   Divers  Orages  Givrage  Turbulence  Onde Orograph.  Cendres Volcan.






- Altitude de l'aérodrome : 115 ft
- Code IATA : HER


LGIR - Nikos Kazantzakis

DERNIER METAR :
  • 300250Z 17008KT 9999 FEW025 13/09 Q1016 NOSIG

METARs EXPIRÉS :
  • 300220Z 17009KT 9999 FEW025 14/10 Q1016
  • 300150Z 16010KT 9999 FEW025 14/10 Q1016 NOSIG
  • 300120Z 17006KT 9999 FEW025 14/10 Q1016 NOSIG
  • 300050Z 17007KT 9999 FEW025 14/10 Q1016 NOSIG

TAF TAF LGIR
Valide du 30 à 00h jusqu'au 31 à 00h UTC


292300Z 3000/3024 20008KT 9999 FEW025
BECMG 3008/3010 30012KT
TEMPO 3009/3015 FEW018TCU BKN080



MET'MAP, la Météo Aéronautique d'un coup d'oeil ! - Copyright ORBIFLY Décembre 2007 - Disclaimer

ORBIFLY MET'MAP TEAM :

Programmation & Développement : Alexandra Zaïnal
Sur une idée originale de : Baudouin d'Aumeries
Assistance à la programmation : Marc-Olivier Méhu
Soutien technique & logistique : Manuel Goepfert

Contact : metmap@orbifly.com




SOURCES & CREDITS :

   NOAA